Meteo Giornale » Osservazioni meteo Italia » Cagliari-Elmas

ore: 23:50 - Osservazioni Meteo Cagliari-Elmas
Lat. 39° 15' N Lon. 9° 4' E Alt. 4 metri s.l.m.

sereno Europe/Rome

24 °C

Sereno

Temp. 24 Ore

19 °C

31 °C

Nord-Est

9.3 Km/h

Dew point 19 °C

Umidità 73 %

Visibilità  10 Km

Il sole sorge alle ore 06:28

Il sole tramonta alle ore 20:30

Data e Ora Cielo e Fenomeni T °C DP °C Um. % Pres. hPa Vis. km Vento km/h
Ieri h: 23:50 sereno Sereno 24 19 73 1017 10 NE 9.3
Ieri h: 23:20 sereno Sereno 26 20 69 1017 10 S/SO 7.4
Ieri h: 22:50 sereno Sereno 26 20 69 1017 10 S/SO 9.3
Ieri h: 22:20 sereno Sereno 26 20 69 1017 10 SO 11.1
Ieri h: 21:50 sereno Sereno 26 20 69 1017 10 S 11.1
Ieri h: 21:20 sereno Sereno 26 19 65 1016 10 S/SE 9.3
Ieri h: 20:50 poco_nuvoloso Poco Nuvoloso 27 18 57 1016 10 S/SE 9.3
Ieri h: 20:20 poco_nuvoloso Poco Nuvoloso 27 17 54 1016 10 SE 20.3
Ieri h: 19:50 poco_nuvoloso Poco Nuvoloso 27 19 61 1016 10 E/SE 22.2
Ieri h: 19:20 poco_nuvoloso Poco Nuvoloso 28 19 58 1016 10 E/SE 22.2
Ieri h: 18:50 poco_nuvoloso Poco Nuvoloso 28 19 58 1016 10 E 22.2
Ieri h: 18:20 poco_nuvoloso Poco Nuvoloso 29 18 51 1016 10 E/SE 24
Ieri h: 17:50 poco_nuvoloso Poco Nuvoloso 30 17 45 1016 10 E/SE 24
Ieri h: 17:20 poco_nuvoloso Poco Nuvoloso 30 17 45 1015 10 SE 27.8
Ieri h: 16:50 poco_nuvoloso Poco Nuvoloso 29 18 51 1015 10 SE 25.9
Ieri h: 16:20 poco_nuvoloso Poco Nuvoloso 29 18 51 1015 10 SE 27.8
Ieri h: 15:50 poco_nuvoloso Poco Nuvoloso 31 16 40 1015 10 S/SE 24
Ieri h: 15:20 poco_nuvoloso Poco Nuvoloso 31 16 40 1015 10 S/SE 22.2
Ieri h: 14:50 poco_nuvoloso Poco Nuvoloso 31 16 40 1015 10 S 20.3
Ieri h: 14:20 poco_nuvoloso Poco Nuvoloso 30 18 48 1015 10 S 18.5
Ieri h: 13:50 poco_nuvoloso Poco Nuvoloso 31 17 43 1015 10 S 16.7
Ieri h: 13:20 sereno Sereno 31 16 40 1016 10 S 14.8
Ieri h: 12:50 sereno Sereno 31 14 35 1016 10 S/SO 9.3
Ieri h: 12:20 sereno Sereno 31 14 35 1016 10 O/SO 9.3
Ieri h: 11:50 sereno Sereno 31 15 37 1016 10 O/NO 9.3
Ieri h: 11:20 sereno Sereno 29 15 42 1016 10 O/NO 9.3
Ieri h: 10:50 sereno Sereno 28 17 51 1016 10 O/NO 11.1
Ieri h: 10:20 sereno Sereno 27 17 54 1016 10 O 11.1
Ieri h: 09:50 sereno Sereno 26 18 61 1017 10 NO 11.1
Ieri h: 09:20 sereno Sereno 25 18 65 1017 10 N 9.3
Ieri h: 08:50 sereno Sereno 24 18 69 1017 10 N/NO 11.1
Ieri h: 07:50 sereno Sereno 21 17 77 1016 10 NO 11.1
Ieri h: 07:20 sereno Sereno 20 18 88 1016 10 NO 11.1
Ieri h: 06:50 sereno Sereno 19 17 88 1016 10 NO 9.3
Ieri h: 06:20 sereno Sereno 20 18 88 1016 10 N/NO 9.3
Ieri h: 05:50 sereno Sereno 20 17 82 1016 10 NO 7.4
Ieri h: 05:20 sereno Sereno 20 17 82 1016 10 NO 7.4
Ieri h: 04:50 sereno Sereno 20 18 88 1016 10 N/NO 9.3
Ieri h: 04:20 sereno Sereno 21 18 82 1015 10 N 5.5
Ieri h: 03:50 sereno Sereno 21 18 82 1016 10 NO 7.4
Ieri h: 02:50 sereno Sereno 22 18 78 1016 10 NO 9.3
Ieri h: 02:20 sereno Sereno 22 18 78 1016 10 NO 7.4
Ieri h: 01:50 sereno Sereno 24 21 83 1016 10 N 3.7
Ieri h: 01:20 sereno Sereno 24 21 83 1016 10 N 3.7
Ieri h: 00:50 sereno Sereno 24 21 83 1016 10 N 3.7